Time;durP1;ratioP1;P1;durP2;ratioP2;P2;SDS_P1;SDS_P2;PMS_P1;PMS_P2;Temp;Humidity;BMP_temperature;BMP_pressure;BME280_temperature;BME280_humidity;BME280_pressure;Samples;Min_cycle;Max_cycle;Signal;HPM_P1;HPM_P2
2023/12/11 00:01:13;;;;;;;18.90;11.30;;;;;;;2.57;100.00;98219.14;109600;1251;62771;-73
2023/12/11 00:03:41;;;;;;;21.90;13.00;;;;;;;2.57;100.00;98215.27;109586;1251;58982;-73
2023/12/11 00:06:08;;;;;;;20.50;12.70;;;;;;;2.58;100.00;98211.21;109619;1251;58971;-73
2023/12/11 00:08:35;;;;;;;19.30;12.50;;;;;;;2.58;100.00;98199.82;109307;1251;66248;-73
2023/12/11 00:11:01;;;;;;;22.00;12.70;;;;;;;2.57;100.00;98189.66;109594;1251;59990;-73
2023/12/11 00:13:28;;;;;;;20.00;12.20;;;;;;;2.57;100.00;98189.50;109565;1251;64698;-73
2023/12/11 00:15:55;;;;;;;21.40;12.20;;;;;;;2.56;100.00;98185.86;109542;1251;59033;-74
2023/12/11 00:18:21;;;;;;;23.40;12.10;;;;;;;2.56;100.00;98184.13;109586;1251;59085;-73
2023/12/11 00:20:48;;;;;;;18.40;12.00;;;;;;;2.54;100.00;98178.25;109632;1250;66746;-72
2023/12/11 00:23:14;;;;;;;18.50;11.60;;;;;;;2.52;100.00;98178.55;109582;1250;60028;-72
2023/12/11 00:25:48;;;;;;;20.40;11.60;;;;;;;2.49;100.00;98172.89;109353;1251;65146;-73
2023/12/11 00:28:15;;;;;;;15.40;11.10;;;;;;;2.45;100.00;98167.84;109598;1251;59233;-73
2023/12/11 00:30:41;;;;;;;17.70;11.60;;;;;;;2.40;100.00;98168.21;109586;1251;58943;-73
2023/12/11 00:33:08;;;;;;;17.00;10.40;;;;;;;2.33;100.00;98163.98;109595;1251;65957;-73
2023/12/11 00:35:34;;;;;;;17.30;9.80;;;;;;;2.26;100.00;98162.39;109607;1251;60737;-74
2023/12/11 00:38:01;;;;;;;16.30;9.20;;;;;;;2.18;100.00;98161.87;109410;1251;64186;-73
2023/12/11 00:40:28;;;;;;;11.10;8.00;;;;;;;2.10;100.00;98166.63;109549;1251;58932;-73
2023/12/11 00:42:54;;;;;;;12.50;7.90;;;;;;;2.00;100.00;98161.63;109536;1251;59391;-74
2023/12/11 00:45:21;;;;;;;13.80;7.90;;;;;;;1.92;100.00;98157.64;109547;1251;66647;-74
2023/12/11 00:47:48;;;;;;;12.40;7.30;;;;;;;1.87;100.00;98161.20;109578;1251;59077;-74
2023/12/11 00:50:14;;;;;;;14.70;8.10;;;;;;;1.82;100.00;98161.27;109527;1251;64759;-74
2023/12/11 00:52:41;;;;;;;16.00;7.90;;;;;;;1.76;100.00;98154.35;109242;1251;59375;-72
2023/12/11 00:55:08;;;;;;;11.30;8.00;;;;;;;1.71;100.00;98157.20;109545;1251;59007;-73
2023/12/11 00:57:35;;;;;;;14.90;10.30;;;;;;;1.67;100.00;98152.25;109578;1251;66998;-74
2023/12/11 01:00:02;;;;;;;11.40;9.50;;;;;;;1.63;100.00;98143.70;109595;1251;59721;-73
2023/12/11 01:02:29;;;;;;;11.40;9.30;;;;;;;1.59;100.00;98140.91;109573;1251;64841;-74
2023/12/11 01:04:57;;;;;;;11.00;8.60;;;;;;;1.53;100.00;98137.85;109589;1251;59168;-74
2023/12/11 01:07:24;;;;;;;12.40;8.30;;;;;;;1.47;100.00;98129.86;109367;1251;59306;-73
2023/12/11 01:09:50;;;;;;;11.50;7.60;;;;;;;1.43;100.00;98130.44;109607;1251;64773;-73
2023/12/11 01:12:17;;;;;;;14.70;7.60;;;;;;;1.38;100.00;98128.88;109569;1251;60040;-73
2023/12/11 01:14:44;;;;;;;12.00;7.90;;;;;;;1.34;100.00;98127.16;109539;1251;63810;-74
2023/12/11 01:17:10;;;;;;;11.20;7.30;;;;;;;1.30;100.00;98119.08;109572;1251;59040;-73
2023/12/11 01:19:37;;;;;;;10.80;7.20;;;;;;;1.27;100.00;98109.08;107269;1251;1002992;-73
2023/12/11 01:22:03;;;;;;;10.20;7.70;;;;;;;1.25;100.00;98099.73;109563;1251;59017;-74
2023/12/11 01:24:30;;;;;;;10.20;7.60;;;;;;;1.22;100.00;98095.83;109596;1251;59085;-73
2023/12/11 01:26:56;;;;;;;10.90;7.90;;;;;;;1.20;100.00;98097.64;109544;1251;59980;-74
2023/12/11 01:29:23;;;;;;;12.00;8.10;;;;;;;1.18;100.00;98100.52;109415;1251;59298;-73
2023/12/11 01:31:49;;;;;;;12.40;8.90;;;;;;;1.16;100.00;98097.83;109379;1251;59582;-74
2023/12/11 01:34:16;;;;;;;18.10;13.20;;;;;;;1.17;100.00;98101.27;109595;1251;58980;-74
2023/12/11 01:36:43;;;;;;;18.40;11.80;;;;;;;1.20;100.00;98101.84;109552;1251;59043;-74
2023/12/11 01:39:09;;;;;;;18.00;11.50;;;;;;;1.23;100.00;98092.46;109592;1251;59140;-73
2023/12/11 01:41:36;;;;;;;14.60;10.00;;;;;;;1.25;100.00;98087.30;109560;1251;59228;-73
2023/12/11 01:44:03;;;;;;;16.30;10.90;;;;;;;1.25;100.00;98076.60;109552;1251;59035;-73
2023/12/11 01:46:30;;;;;;;15.00;10.40;;;;;;;1.26;100.00;98070.98;109576;1251;67177;-74
2023/12/11 01:48:58;;;;;;;17.60;11.20;;;;;;;1.24;100.00;98066.52;109552;1251;60062;-74
2023/12/11 01:51:25;;;;;;;15.90;11.10;;;;;;;1.21;100.00;98068.38;109570;1251;63959;-73
2023/12/11 01:53:52;;;;;;;23.60;15.80;;;;;;;1.21;100.00;98063.65;109608;1251;58974;-73
2023/12/11 01:56:20;;;;;;;21.70;14.70;;;;;;;1.24;100.00;98067.73;109562;1251;60042;-73
2023/12/11 01:58:48;;;;;;;16.60;12.60;;;;;;;1.25;100.00;98074.16;109572;1251;65930;-73
2023/12/11 02:01:16;;;;;;;17.90;11.90;;;;;;;1.25;100.00;98076.77;109573;1251;61041;-74
2023/12/11 02:03:43;;;;;;;18.10;10.30;;;;;;;1.27;100.00;98073.20;109569;1251;72523;-74
2023/12/11 02:06:09;;;;;;;17.60;10.60;;;;;;;1.28;100.00;98066.83;109574;1251;59253;-72
2023/12/11 02:08:36;;;;;;;15.70;9.70;;;;;;;1.30;100.00;98055.73;109293;1251;59184;-73
2023/12/11 02:11:03;;;;;;;17.30;11.50;;;;;;;1.32;100.00;98044.10;109175;1250;64422;-74
2023/12/11 02:13:30;;;;;;;18.40;12.20;;;;;;;1.37;100.00;98039.14;109648;1250;60407;-73
2023/12/11 02:15:56;;;;;;;15.50;10.30;;;;;;;1.44;100.00;98032.55;109592;1251;64745;-74
2023/12/11 02:18:23;;;;;;;15.20;10.00;;;;;;;1.50;100.00;98020.89;109601;1251;58942;-74
2023/12/11 02:20:49;;;;;;;16.00;9.30;;;;;;;1.56;100.00;98012.05;109564;1251;58958;-74
2023/12/11 02:23:25;;;;;;;15.00;10.10;;;;;;;1.61;100.00;98010.76;109600;1251;65918;-74
2023/12/11 02:26:02;;;;;;;13.60;9.20;;;;;;;1.65;100.00;98017.39;109585;1251;60765;-73
2023/12/11 02:28:29;;;;;;;14.80;10.40;;;;;;;1.67;100.00;98017.30;109602;1251;64839;-73
2023/12/11 02:30:55;;;;;;;17.70;11.80;;;;;;;1.68;100.00;98017.23;109582;1251;58852;-73
2023/12/11 02:33:22;;;;;;;18.90;11.30;;;;;;;1.66;100.00;98011.19;109586;1251;59046;-73
2023/12/11 02:35:48;;;;;;;13.50;10.60;;;;;;;1.67;100.00;97997.71;109615;1250;66646;-73
2023/12/11 02:38:15;;;;;;;16.70;11.80;;;;;;;1.69;100.00;97996.36;109612;1250;59732;-73
2023/12/11 02:40:41;;;;;;;12.10;9.80;;;;;;;1.72;100.00;98010.94;109557;1251;63707;-73
2023/12/11 02:43:08;;;;;;;15.00;10.30;;;;;;;1.73;100.00;98015.09;109281;1251;59377;-73
2023/12/11 02:45:35;;;;;;;14.40;11.20;;;;;;;1.74;100.00;98012.57;109558;1251;59198;-73
2023/12/11 02:48:04;;;;;;;13.90;10.80;;;;;;;1.75;100.00;98007.48;109566;1251;66739;-73
2023/12/11 02:50:34;;;;;;;13.30;10.50;;;;;;;1.74;100.00;98004.89;109576;1250;60866;-73
2023/12/11 02:53:02;;;;;;;15.20;11.50;;;;;;;1.74;100.00;98002.96;109574;1251;63811;-73
2023/12/11 02:55:29;;;;;;;13.40;11.40;;;;;;;1.74;100.00;97998.41;109494;1251;59106;-73
2023/12/11 02:58:00;;;;;;;16.50;11.80;;;;;;;1.74;100.00;97997.69;109550;1251;58859;-73
2023/12/11 03:00:39;;;;;;;18.00;13.10;;;;;;;1.77;100.00;97994.61;109631;1251;66987;-74
2023/12/11 03:03:07;;;;;;;15.20;12.00;;;;;;;1.78;100.00;97991.04;109561;1251;59702;-74
2023/12/11 03:05:34;;;;;;;16.70;12.70;;;;;;;1.78;100.00;97985.45;109578;1251;65057;-74
2023/12/11 03:08:05;;;;;;;15.30;13.40;;;;;;;1.77;100.00;97984.79;109571;1251;58986;-74
2023/12/11 03:10:32;;;;;;;14.90;10.50;;;;;;;1.77;100.00;97978.84;109621;1251;59367;-72
2023/12/11 03:12:59;;;;;;;17.00;13.00;;;;;;;1.77;100.00;97968.31;109582;1251;66713;-73
2023/12/11 03:15:26;;;;;;;14.70;12.00;;;;;;;1.78;100.00;97958.30;109583;1250;59007;-74
2023/12/11 03:17:52;;;;;;;20.30;15.10;;;;;;;1.76;100.00;97956.12;109425;1251;63768;-74
2023/12/11 03:20:19;;;;;;;20.90;14.10;;;;;;;1.74;100.00;97954.27;109557;1251;59341;-73
2023/12/11 03:22:46;;;;;;;19.10;17.10;;;;;;;1.74;100.00;97950.77;109550;1251;59798;-73
2023/12/11 03:25:12;;;;;;;20.80;18.50;;;;;;;1.76;100.00;97948.77;109579;1251;66719;-74
2023/12/11 03:27:39;;;;;;;25.50;18.50;;;;;;;1.78;100.00;97949.02;109348;1251;60991;-73
2023/12/11 03:30:06;;;;;;;23.40;18.00;;;;;;;1.79;100.00;97951.60;109533;1251;64723;-73
2023/12/11 03:32:33;;;;;;;24.80;17.50;;;;;;;1.80;100.00;97947.02;109593;1251;59013;-74
2023/12/11 03:34:59;;;;;;;17.90;13.20;;;;;;;1.81;100.00;97931.86;109575;1251;59088;-74
2023/12/11 03:37:26;;;;;;;18.10;13.00;;;;;;;1.87;100.00;97910.37;109428;1251;65960;-74
2023/12/11 03:39:52;;;;;;;18.60;16.70;;;;;;;1.94;100.00;97909.70;109618;1251;59857;-73
2023/12/11 03:42:19;;;;;;;21.30;17.80;;;;;;;1.98;100.00;97914.56;109585;1251;65162;-74
2023/12/11 03:44:46;;;;;;;18.30;15.90;;;;;;;2.01;100.00;97910.95;109544;1251;58973;-73
2023/12/11 03:47:12;;;;;;;18.20;16.20;;;;;;;2.02;100.00;97905.79;109573;1251;58967;-73
2023/12/11 03:49:39;;;;;;;15.80;13.50;;;;;;;2.04;100.00;97896.26;109583;1250;66682;-74
2023/12/11 03:52:06;;;;;;;12.60;10.10;;;;;;;2.07;100.00;97892.95;109608;1250;69862;-72
2023/12/11 03:54:32;;;;;;;15.70;12.40;;;;;;;2.11;100.00;97893.42;109531;1251;65025;-73
2023/12/11 03:56:59;;;;;;;18.20;13.00;;;;;;;2.14;100.00;97891.50;109248;1251;165061;-74
2023/12/11 03:59:26;;;;;;;18.30;11.90;;;;;;;2.17;100.00;97893.11;109616;1251;59097;-74
2023/12/11 04:01:52;;;;;;;18.30;11.70;;;;;;;2.19;100.00;97894.23;109557;1250;66647;-73
2023/12/11 04:04:19;;;;;;;18.70;11.80;;;;;;;2.20;100.00;97886.48;109541;1251;61089;-73
2023/12/11 04:06:46;;;;;;;17.40;10.50;;;;;;;2.22;100.00;97887.10;109588;1251;63936;-74
2023/12/11 04:09:12;;;;;;;15.00;10.80;;;;;;;2.23;100.00;97880.95;109577;1251;58940;-74
2023/12/11 04:11:39;;;;;;;21.40;11.60;;;;;;;2.23;100.00;97866.37;109555;1251;58864;-72
2023/12/11 04:14:05;;;;;;;25.10;14.30;;;;;;;2.26;100.00;97863.27;109624;1251;65923;-73
2023/12/11 04:16:32;;;;;;;18.60;12.10;;;;;;;2.28;100.00;97862.78;109594;1251;60016;-73
2023/12/11 04:18:59;;;;;;;18.00;12.00;;;;;;;2.30;100.00;97866.03;109587;1251;65245;-74
2023/12/11 04:21:25;;;;;;;16.40;10.90;;;;;;;2.30;100.00;97863.92;109573;1251;58978;-74
2023/12/11 04:23:52;;;;;;;13.60;10.70;;;;;;;2.32;100.00;97860.45;109614;1251;58931;-73
2023/12/11 04:26:18;;;;;;;15.40;8.90;;;;;;;2.35;100.00;97835.08;109588;1250;66952;-73
2023/12/11 04:28:45;;;;;;;16.90;11.00;;;;;;;2.38;100.00;97821.63;109609;1251;60118;-74
2023/12/11 04:31:12;;;;;;;17.00;11.60;;;;;;;2.40;100.00;97819.17;109388;1251;63787;-73
2023/12/11 04:33:38;;;;;;;16.90;11.40;;;;;;;2.42;100.00;97825.61;109571;1251;59172;-72
2023/12/11 04:36:08;;;;;;;19.50;11.40;;;;;;;2.43;100.00;97819.96;109554;1251;59032;-74
2023/12/11 04:38:34;;;;;;;17.60;10.60;;;;;;;2.43;100.00;97825.05;109585;1251;66172;-73
2023/12/11 04:41:01;;;;;;;19.00;12.00;;;;;;;2.45;100.00;97825.10;109393;1251;60101;-73
2023/12/11 04:43:28;;;;;;;27.90;17.00;;;;;;;2.46;100.00;97827.33;109530;1251;65389;-74
2023/12/11 04:45:55;;;;;;;26.40;17.60;;;;;;;2.47;100.00;97837.98;109607;1251;58954;-73
2023/12/11 04:48:21;;;;;;;24.80;17.90;;;;;;;2.45;100.00;97855.44;109567;1253;58890;-74
2023/12/11 04:50:48;;;;;;;22.60;15.90;;;;;;;2.42;100.00;97869.94;109268;1251;67048;-73
2023/12/11 04:53:15;;;;;;;29.30;24.10;;;;;;;2.37;100.00;97879.16;109667;1250;61257;-74
2023/12/11 04:55:41;;;;;;;38.60;31.10;;;;;;;2.32;100.00;97888.70;109607;1251;64024;-73
2023/12/11 04:58:08;;;;;;;27.50;20.80;;;;;;;2.29;100.00;97895.14;109561;1251;59031;-73
2023/12/11 05:00:35;;;;;;;16.90;12.30;;;;;;;2.28;100.00;97902.91;109589;1251;58970;-73
2023/12/11 05:03:01;;;;;;;20.90;13.90;;;;;;;2.34;100.00;97896.98;109688;1251;65953;-73
2023/12/11 05:05:28;;;;;;;17.70;8.70;;;;;;;2.41;100.00;97888.41;109632;1251;60134;-74
2023/12/11 05:07:55;;;;;;;11.60;6.90;;;;;;;2.52;100.00;97886.23;109588;1251;64057;-73
2023/12/11 05:10:21;;;;;;;12.00;5.40;;;;;;;2.71;100.00;97874.70;109584;1251;59095;-73
2023/12/11 05:12:48;;;;;;;9.10;4.80;;;;;;;2.95;100.00;97876.78;109628;1251;59009;-74
2023/12/11 05:15:15;;;;;;;9.90;5.30;;;;;;;3.19;100.00;97882.14;109562;1251;67134;-73
2023/12/11 05:17:41;;;;;;;7.30;4.20;;;;;;;3.36;100.00;97882.61;109611;1251;60014;-73
2023/12/11 05:20:08;;;;;;;7.40;4.20;;;;;;;3.51;100.00;97880.58;109277;1251;63966;-73
2023/12/11 05:22:35;;;;;;;8.30;3.70;;;;;;;3.64;100.00;97876.83;109330;1251;58983;-74
2023/12/11 05:25:02;;;;;;;6.60;4.00;;;;;;;3.74;100.00;97867.48;109444;1251;59028;-73
2023/12/11 05:27:28;;;;;;;9.50;5.10;;;;;;;3.83;100.00;97849.59;109349;1250;66658;-74
2023/12/11 05:29:55;;;;;;;7.00;3.70;;;;;;;3.87;100.00;97834.19;109573;1251;59959;-73
2023/12/11 05:32:22;;;;;;;8.30;4.70;;;;;;;3.91;100.00;97823.77;109596;1251;65307;-73
2023/12/11 05:34:48;;;;;;;9.40;5.20;;;;;;;3.93;100.00;97830.54;109235;1251;59004;-74
2023/12/11 05:37:15;;;;;;;8.80;5.30;;;;;;;3.97;100.00;97839.09;109612;1251;59022;-74
2023/12/11 05:39:42;;;;;;;9.50;5.30;;;;;;;4.02;100.00;97848.27;109598;1251;66041;-74
2023/12/11 05:42:09;;;;;;;10.60;6.70;;;;;;;4.04;100.00;97840.80;109254;1251;60612;-74
2023/12/11 05:44:35;;;;;;;8.60;5.70;;;;;;;4.03;100.00;97834.01;109576;1251;65080;-73
2023/12/11 05:47:02;;;;;;;6.90;5.30;;;;;;;4.02;100.00;97832.67;109543;1251;58942;-74
2023/12/11 05:49:29;;;;;;;7.60;5.10;;;;;;;3.99;100.00;97834.61;109623;1251;59367;-73
2023/12/11 05:51:56;;;;;;;9.60;5.50;;;;;;;3.96;100.00;97840.17;109583;1251;65933;-73
2023/12/11 05:54:23;;;;;;;8.40;5.30;;;;;;;3.96;100.00;97841.27;109623;1251;60197;-73
2023/12/11 05:56:49;;;;;;;7.40;4.90;;;;;;;3.95;100.00;97839.57;109579;1251;65217;-74
2023/12/11 05:59:16;;;;;;;7.70;4.50;;;;;;;3.94;100.00;97847.16;109548;1251;58990;-74
2023/12/11 06:01:42;;;;;;;8.60;5.00;;;;;;;3.92;100.00;97847.62;109570;1251;59640;-74
2023/12/11 06:04:09;;;;;;;8.60;5.10;;;;;;;3.91;100.00;97851.73;109605;1251;67162;-74
2023/12/11 06:06:36;;;;;;;6.30;4.60;;;;;;;3.90;100.00;97853.72;109563;1251;61017;-73
2023/12/11 06:09:03;;;;;;;10.70;6.20;;;;;;;3.89;100.00;97855.20;109570;1251;65445;-74
2023/12/11 06:11:29;;;;;;;7.50;4.80;;;;;;;3.87;100.00;97858.46;109554;1251;59253;-72
2023/12/11 06:13:57;;;;;;;7.30;5.20;;;;;;;3.88;100.00;97866.45;109377;1251;59041;-73
2023/12/11 06:16:24;;;;;;;8.30;5.20;;;;;;;3.92;100.00;97866.06;109582;1250;67024;-73
2023/12/11 06:18:50;;;;;;;9.80;5.70;;;;;;;3.95;100.00;97867.83;109581;1251;60031;-72
2023/12/11 06:21:19;;;;;;;11.20;6.20;;;;;;;3.96;100.00;97859.14;109263;1251;65254;-73
2023/12/11 06:23:46;;;;;;;11.70;6.30;;;;;;;3.97;100.00;97851.91;109620;1251;58933;-73
2023/12/11 06:26:34;;;;;;;11.70;6.80;;;;;;;3.96;100.00;97848.27;109456;1251;58979;-73
2023/12/11 06:29:01;;;;;;;12.00;7.20;;;;;;;3.93;100.00;97840.90;109629;1251;67032;-75
2023/12/11 06:31:28;;;;;;;10.70;6.70;;;;;;;3.89;100.00;97833.04;109242;1251;61204;-73
2023/12/11 06:33:56;;;;;;;13.50;7.50;;;;;;;3.86;100.00;97821.83;109570;1251;65123;-74
2023/12/11 06:36:25;;;;;;;9.50;6.40;;;;;;;3.82;100.00;97812.05;109514;1251;59008;-73
2023/12/11 06:38:52;;;;;;;11.20;6.80;;;;;;;3.78;100.00;97816.66;109550;1250;59055;-73
2023/12/11 06:41:19;;;;;;;9.80;7.00;;;;;;;3.77;100.00;97820.79;109582;1251;65711;-73
2023/12/11 06:43:47;;;;;;;9.30;6.60;;;;;;;3.76;100.00;97821.88;109380;1251;60781;-73
2023/12/11 06:46:15;;;;;;;11.10;6.70;;;;;;;3.73;100.00;97817.97;109588;1251;65122;-73
2023/12/11 06:48:41;;;;;;;9.50;6.60;;;;;;;3.71;100.00;97828.27;109582;1251;59255;-73
2023/12/11 06:51:08;;;;;;;12.40;7.00;;;;;;;3.71;100.00;97833.04;109355;1251;59079;-72
2023/12/11 06:53:35;;;;;;;10.10;6.60;;;;;;;3.72;100.00;97832.42;109612;1251;65974;-73
2023/12/11 06:56:02;;;;;;;12.90;7.00;;;;;;;3.75;100.00;97833.69;109643;1251;59797;-73
2023/12/11 06:58:28;;;;;;;9.60;6.70;;;;;;;3.75;100.00;97836.69;109611;1251;65173;-73
2023/12/11 07:00:55;;;;;;;9.20;5.70;;;;;;;3.78;100.00;97848.27;109542;1251;59063;-73
2023/12/11 07:03:22;;;;;;;8.90;6.30;;;;;;;3.85;100.00;97854.39;109558;1251;59112;-73
2023/12/11 07:05:48;;;;;;;11.60;6.60;;;;;;;3.94;100.00;97857.00;109598;1251;67083;-72
2023/12/11 07:08:15;;;;;;;9.40;6.10;;;;;;;4.02;100.00;97864.98;109388;1250;61069;-73
2023/12/11 07:10:42;;;;;;;10.20;5.80;;;;;;;4.06;100.00;97871.94;109568;1251;65120;-72
2023/12/11 07:13:08;;;;;;;10.30;6.90;;;;;;;4.10;100.00;97875.41;109522;1250;58989;-73
2023/12/11 07:15:35;;;;;;;11.50;7.70;;;;;;;4.12;100.00;97882.11;109573;1251;59072;-73
2023/12/11 07:18:01;;;;;;;10.70;7.10;;;;;;;4.13;100.00;97883.65;109581;1251;65966;-73
2023/12/11 07:20:28;;;;;;;11.00;7.90;;;;;;;4.14;100.00;97884.66;109634;1251;59830;-73
2023/12/11 07:22:55;;;;;;;8.60;6.50;;;;;;;4.15;100.00;97880.58;109329;1251;63846;-73
2023/12/11 07:25:22;;;;;;;9.60;6.10;;;;;;;4.16;100.00;97882.40;109534;1253;58997;-73
2023/12/11 07:27:49;;;;;;;8.30;5.60;;;;;;;4.19;100.00;97882.23;109550;1251;59021;-73
2023/12/11 07:30:15;;;;;;;8.00;5.80;;;;;;;4.22;100.00;97884.73;109536;1251;67223;-72
2023/12/11 07:32:42;;;;;;;7.30;5.40;;;;;;;4.24;100.00;97887.75;109651;1250;60150;-72
2023/12/11 07:35:11;;;;;;;7.80;4.80;;;;;;;4.27;100.00;97887.60;109528;1251;64874;-73
2023/12/11 07:37:41;;;;;;;9.30;5.00;;;;;;;4.31;100.00;97884.74;109542;1251;58990;-73
2023/12/11 07:40:09;;;;;;;8.90;5.40;;;;;;;4.35;100.00;97884.27;109410;1256;59027;-73
2023/12/11 07:42:36;;;;;;;5.40;3.50;;;;;;;4.42;100.00;97877.04;109611;1251;67147;-73
2023/12/11 07:45:05;;;;;;;5.10;3.40;;;;;;;4.46;100.00;97874.66;109566;1251;59783;-73
2023/12/11 07:47:32;;;;;;;4.60;3.50;;;;;;;4.52;100.00;97867.96;109288;1251;65693;-72
2023/12/11 07:50:02;;;;;;;5.90;4.10;;;;;;;4.59;100.00;97869.30;109535;1256;59036;-73
2023/12/11 07:52:30;;;;;;;6.20;3.70;;;;;;;4.66;100.00;97869.75;109315;1251;59053;-73
2023/12/11 07:54:58;;;;;;;4.60;3.70;;;;;;;4.72;100.00;97872.05;109568;1251;65989;-73
2023/12/11 07:57:26;;;;;;;5.00;3.40;;;;;;;4.77;100.00;97875.77;109573;1250;58973;-73
2023/12/11 07:59:52;;;;;;;6.70;4.20;;;;;;;4.81;100.00;97878.31;109580;1251;65148;-74
2023/12/11 08:02:19;;;;;;;8.40;5.50;;;;;;;4.86;100.00;97877.70;109599;1251;59344;-73
2023/12/11 08:04:46;;;;;;;7.60;5.40;;;;;;;4.89;100.00;97882.79;109608;1251;59108;-73
2023/12/11 08:07:16;;;;;;;6.50;4.30;;;;;;;4.91;100.00;97887.39;109577;1250;67117;-73
2023/12/11 08:09:43;;;;;;;7.80;5.40;;;;;;;4.93;100.00;97890.98;109596;1251;60924;-73
2023/12/11 08:12:10;;;;;;;7.70;4.90;;;;;;;4.96;100.00;97891.70;109604;1251;65191;-73
2023/12/11 08:14:39;;;;;;;6.60;4.90;;;;;;;5.00;100.00;97895.33;109553;1251;59061;-74
2023/12/11 08:17:06;;;;;;;8.30;5.90;;;;;;;5.03;100.00;97890.87;109622;1251;59912;-73
2023/12/11 08:19:33;;;;;;;5.50;4.40;;;;;;;5.09;100.00;97889.49;109590;1251;66067;-73
2023/12/11 08:22:00;;;;;;;7.40;4.90;;;;;;;5.15;100.00;97891.41;109578;1250;60172;-75
2023/12/11 08:24:27;;;;;;;6.70;5.10;;;;;;;5.21;100.00;97897.70;109566;1251;64053;-73
2023/12/11 08:26:54;;;;;;;11.00;7.20;;;;;;;5.26;100.00;97897.34;109403;1251;59081;-74
2023/12/11 08:29:23;;;;;;;15.30;8.60;;;;;;;5.32;100.00;97893.66;109568;1251;58966;-74
2023/12/11 08:31:50;;;;;;;8.80;5.40;;;;;;;5.38;100.00;97896.11;109525;1250;67222;-73
2023/12/11 08:34:19;;;;;;;5.70;4.40;;;;;;;5.41;100.00;97891.66;109612;1251;60108;-74
2023/12/11 08:36:46;;;;;;;11.00;5.30;;;;;;;5.46;100.00;97889.27;109326;1251;64303;-74
2023/12/11 08:39:13;;;;;;;8.20;4.20;;;;;;;5.51;100.00;97887.02;109230;1251;59038;-74
2023/12/11 08:41:40;;;;;;;7.50;4.10;;;;;;;5.57;100.00;97882.55;109595;1251;59021;-74
2023/12/11 08:44:06;;;;;;;5.70;3.80;;;;;;;5.66;100.00;97884.45;109563;1251;67288;-74
2023/12/11 08:46:34;;;;;;;6.50;4.50;;;;;;;5.75;100.00;97882.66;109415;1251;60146;-73
2023/12/11 08:49:00;;;;;;;8.30;5.00;;;;;;;5.85;100.00;97879.51;109600;1251;64978;-73
2023/12/11 08:51:27;;;;;;;4.40;3.60;;;;;;;5.95;100.00;97875.37;109531;1254;59009;-73
2023/12/11 08:53:54;;;;;;;6.50;4.20;;;;;;;6.04;100.00;97884.66;109578;1251;59026;-73
2023/12/11 08:56:23;;;;;;;6.50;4.50;;;;;;;6.17;100.00;97888.02;109553;1251;66936;-73
2023/12/11 08:58:51;;;;;;;5.40;4.10;;;;;;;6.31;100.00;97892.48;109546;1251;60441;-74
2023/12/11 09:01:18;;;;;;;7.30;4.90;;;;;;;6.46;100.00;97886.20;109561;1251;64975;-73
2023/12/11 09:03:45;;;;;;;6.80;4.80;;;;;;;6.55;100.00;97879.77;109521;1251;58982;-73
2023/12/11 09:06:15;;;;;;;5.70;4.80;;;;;;;6.59;100.00;97866.98;109583;1251;58859;-73
2023/12/11 09:08:42;;;;;;;7.10;5.80;;;;;;;6.56;100.00;97864.34;109576;1251;67172;-73
2023/12/11 09:11:09;;;;;;;7.70;6.60;;;;;;;6.49;100.00;97860.63;109634;1251;59999;-74
2023/12/11 09:13:36;;;;;;;7.90;7.00;;;;;;;6.43;100.00;97852.00;109529;1251;64060;-74
2023/12/11 09:16:03;;;;;;;7.50;5.40;;;;;;;6.41;100.00;97856.91;109548;1251;59292;-73
2023/12/11 09:18:30;;;;;;;7.20;5.20;;;;;;;6.43;100.00;97855.75;109377;1251;59407;-73
2023/12/11 09:20:57;;;;;;;8.40;4.50;;;;;;;6.49;100.00;97849.16;109630;1251;66974;-73
2023/12/11 09:23:23;;;;;;;6.40;4.40;;;;;;;6.57;100.00;97843.45;109565;1251;60807;-73
2023/12/11 09:25:50;;;;;;;6.50;4.60;;;;;;;6.60;100.00;97851.75;109550;1251;64002;-73
2023/12/11 09:28:17;;;;;;;6.70;4.40;;;;;;;6.66;100.00;97850.75;109559;1251;59027;-73
2023/12/11 09:30:43;;;;;;;7.50;4.70;;;;;;;6.75;100.00;97850.31;109635;1251;59017;-73
2023/12/11 09:33:10;;;;;;;7.30;4.30;;;;;;;6.84;100.00;97851.31;109562;1254;67017;-72
2023/12/11 09:35:37;;;;;;;8.80;4.80;;;;;;;6.86;100.00;97847.11;109561;1251;61117;-73
2023/12/11 09:38:03;;;;;;;7.90;5.20;;;;;;;6.79;100.00;97840.33;109577;1251;65099;-73
2023/12/11 09:40:30;;;;;;;6.80;4.90;;;;;;;6.69;100.00;97840.86;109361;1251;59019;-73
2023/12/11 09:43:01;;;;;;;9.20;5.20;;;;;;;6.63;100.00;97845.16;109530;1251;59014;-73
2023/12/11 09:45:29;;;;;;;6.10;4.50;;;;;;;6.63;100.00;97842.88;109577;1251;66783;-74
2023/12/11 09:47:58;;;;;;;8.50;5.00;;;;;;;6.68;100.00;97842.56;109565;1250;61074;-74
2023/12/11 09:50:24;;;;;;;7.60;5.20;;;;;;;6.77;100.00;97841.34;109554;1251;65345;-73
2023/12/11 09:52:52;;;;;;;6.70;5.00;;;;;;;6.86;100.00;97843.20;109528;1251;59412;-73
2023/12/11 09:55:18;;;;;;;7.40;6.30;;;;;;;6.94;100.00;97843.53;109615;1251;59432;-73
2023/12/11 09:57:46;;;;;;;6.80;5.00;;;;;;;7.01;100.00;97852.55;109551;1251;67094;-73
2023/12/11 10:00:13;;;;;;;6.00;4.70;;;;;;;7.11;100.00;97850.49;109336;1251;60036;-73
2023/12/11 10:02:41;;;;;;;5.70;4.50;;;;;;;7.18;100.00;97852.46;109519;1251;63821;-74
2023/12/11 10:05:10;;;;;;;6.50;4.70;;;;;;;7.24;100.00;97852.89;109533;1251;58936;-73
2023/12/11 10:07:40;;;;;;;6.20;4.40;;;;;;;7.30;100.00;97851.38;109596;1251;59026;-73
2023/12/11 10:10:19;;;;;;;4.50;3.80;;;;;;;7.30;100.00;97851.05;109598;1251;66950;-74
2023/12/11 10:12:46;;;;;;;7.50;4.10;;;;;;;7.25;100.00;97855.25;109593;1251;61023;-73
2023/12/11 10:15:21;;;;;;;4.10;3.70;;;;;;;7.20;100.00;97851.55;109541;1251;64023;-74
2023/12/11 10:18:05;;;;;;;6.90;3.60;;;;;;;7.16;100.00;97845.00;109341;1251;59028;-73
2023/12/11 10:20:32;;;;;;;5.90;3.60;;;;;;;7.14;100.00;97835.60;109566;1251;59273;-73
2023/12/11 10:23:17;;;;;;;4.50;3.50;;;;;;;7.15;100.00;97833.23;109568;1251;67050;-73
2023/12/11 10:25:46;;;;;;;3.30;2.80;;;;;;;7.15;100.00;97831.60;109602;1251;60114;-74
2023/12/11 10:28:21;;;;;;;6.80;4.10;;;;;;;7.16;100.00;97831.02;109547;1251;65106;-74
2023/12/11 10:30:54;;;;;;;7.40;4.00;;;;;;;7.20;100.00;97820.64;109539;1251;59116;-74
2023/12/11 10:33:22;;;;;;;5.40;3.80;;;;;;;7.23;100.00;97815.83;109526;1251;59101;-74
2023/12/11 10:35:49;;;;;;;7.60;4.20;;;;;;;7.28;100.00;97809.49;109541;1250;65934;-74
2023/12/11 10:38:23;;;;;;;8.00;5.00;;;;;;;7.31;100.00;97809.31;109585;1251;60854;-74
2023/12/11 10:40:51;;;;;;;6.40;5.20;;;;;;;7.32;100.00;97806.54;109312;1251;64263;-74
2023/12/11 10:43:18;;;;;;;7.10;4.20;;;;;;;7.34;100.00;97801.14;109545;1251;58943;-73
2023/12/11 10:45:46;;;;;;;5.40;4.30;;;;;;;7.31;100.00;97802.42;109581;1253;58855;-74
2023/12/11 10:48:12;;;;;;;4.80;4.30;;;;;;;7.23;100.00;97804.75;109549;1251;67148;-74
2023/12/11 10:50:40;;;;;;;6.50;4.50;;;;;;;7.24;100.00;97804.16;109572;1251;61067;-74
2023/12/11 10:53:08;;;;;;;8.60;5.70;;;;;;;7.30;100.00;97809.20;109549;1251;64234;-74
2023/12/11 10:55:38;;;;;;;9.10;6.60;;;;;;;7.31;100.00;97809.09;109540;1251;58958;-74
2023/12/11 10:58:08;;;;;;;15.20;8.90;;;;;;;7.29;100.00;97804.16;109551;1251;59129;-74
2023/12/11 11:00:36;;;;;;;17.20;9.80;;;;;;;7.24;100.00;97799.16;109590;1251;66113;-73
2023/12/11 11:03:07;;;;;;;11.80;7.80;;;;;;;7.13;100.00;97797.11;109376;1251;60142;-74
2023/12/11 11:05:34;;;;;;;6.60;5.40;;;;;;;7.06;100.00;97795.53;109604;1251;65043;-74
2023/12/11 11:08:11;;;;;;;8.20;5.30;;;;;;;7.05;100.00;97789.98;109601;1251;58958;-73
2023/12/11 11:10:49;;;;;;;7.10;4.80;;;;;;;7.03;100.00;97787.09;109615;1251;59123;-73
2023/12/11 11:13:34;;;;;;;6.60;5.00;;;;;;;7.00;100.00;97789.23;109537;1251;67043;-73
2023/12/11 11:16:02;;;;;;;8.80;5.30;;;;;;;6.97;100.00;97788.00;109554;1251;60054;-75
2023/12/11 11:18:29;;;;;;;7.00;5.40;;;;;;;6.99;100.00;97790.86;109553;1251;64177;-74